sensor_id;sensor_type;location;lat;lon;timestamp;P1;durP1;ratioP1;P2;durP2;ratioP2
19998;SDS011;10160;50.926;4.374;2023-08-06T00:02:00;7.68;;;3.25;;
19998;SDS011;10160;50.926;4.374;2023-08-06T00:04:25;7.70;;;2.85;;
19998;SDS011;10160;50.926;4.374;2023-08-06T00:06:54;11.55;;;3.70;;
19998;SDS011;10160;50.926;4.374;2023-08-06T00:09:19;6.75;;;3.05;;
19998;SDS011;10160;50.926;4.374;2023-08-06T00:11:48;8.65;;;3.00;;
19998;SDS011;10160;50.926;4.374;2023-08-06T00:14:13;6.95;;;3.33;;
19998;SDS011;10160;50.926;4.374;2023-08-06T00:16:43;7.82;;;2.95;;
19998;SDS011;10160;50.926;4.374;2023-08-06T00:19:09;6.45;;;3.10;;
19998;SDS011;10160;50.926;4.374;2023-08-06T00:21:37;9.93;;;3.08;;
19998;SDS011;10160;50.926;4.374;2023-08-06T00:24:03;9.32;;;3.22;;
19998;SDS011;10160;50.926;4.374;2023-08-06T00:26:29;6.40;;;3.03;;
19998;SDS011;10160;50.926;4.374;2023-08-06T00:28:55;6.70;;;3.35;;
19998;SDS011;10160;50.926;4.374;2023-08-06T00:31:20;7.32;;;3.47;;
19998;SDS011;10160;50.926;4.374;2023-08-06T00:33:46;7.10;;;3.17;;
19998;SDS011;10160;50.926;4.374;2023-08-06T00:36:12;8.52;;;3.97;;
19998;SDS011;10160;50.926;4.374;2023-08-06T00:38:37;8.27;;;3.45;;
19998;SDS011;10160;50.926;4.374;2023-08-06T00:41:03;10.07;;;3.85;;
19998;SDS011;10160;50.926;4.374;2023-08-06T00:43:29;9.03;;;3.60;;
19998;SDS011;10160;50.926;4.374;2023-08-06T00:45:55;9.15;;;4.53;;
19998;SDS011;10160;50.926;4.374;2023-08-06T00:48:21;10.23;;;4.70;;
19998;SDS011;10160;50.926;4.374;2023-08-06T00:50:47;8.80;;;5.68;;
19998;SDS011;10160;50.926;4.374;2023-08-06T00:53:13;10.70;;;5.25;;
19998;SDS011;10160;50.926;4.374;2023-08-06T00:55:39;11.50;;;5.63;;
19998;SDS011;10160;50.926;4.374;2023-08-06T00:58:05;10.52;;;5.32;;
19998;SDS011;10160;50.926;4.374;2023-08-06T01:00:31;10.25;;;4.80;;
19998;SDS011;10160;50.926;4.374;2023-08-06T01:02:56;12.85;;;4.75;;
19998;SDS011;10160;50.926;4.374;2023-08-06T01:05:22;10.45;;;4.88;;
19998;SDS011;10160;50.926;4.374;2023-08-06T01:07:51;15.32;;;5.40;;
19998;SDS011;10160;50.926;4.374;2023-08-06T01:16:11;13.43;;;6.20;;
19998;SDS011;10160;50.926;4.374;2023-08-06T01:18:39;13.68;;;6.88;;
19998;SDS011;10160;50.926;4.374;2023-08-06T01:21:06;14.93;;;7.63;;
19998;SDS011;10160;50.926;4.374;2023-08-06T01:23:32;16.10;;;7.47;;
19998;SDS011;10160;50.926;4.374;2023-08-06T01:31:31;16.23;;;6.97;;
19998;SDS011;10160;50.926;4.374;2023-08-06T01:34:01;16.67;;;6.85;;
19998;SDS011;10160;50.926;4.374;2023-08-06T01:36:29;12.10;;;6.97;;
19998;SDS011;10160;50.926;4.374;2023-08-06T01:38:56;15.50;;;6.68;;
19998;SDS011;10160;50.926;4.374;2023-08-06T01:41:22;15.65;;;7.50;;
19998;SDS011;10160;50.926;4.374;2023-08-06T01:43:48;18.02;;;7.70;;
19998;SDS011;10160;50.926;4.374;2023-08-06T01:46:14;13.30;;;8.18;;
19998;SDS011;10160;50.926;4.374;2023-08-06T01:48:39;17.35;;;7.65;;
19998;SDS011;10160;50.926;4.374;2023-08-06T01:51:08;20.23;;;7.68;;
19998;SDS011;10160;50.926;4.374;2023-08-06T01:53:33;20.55;;;7.22;;
19998;SDS011;10160;50.926;4.374;2023-08-06T01:55:59;17.23;;;7.30;;
19998;SDS011;10160;50.926;4.374;2023-08-06T01:58:25;14.85;;;7.43;;
19998;SDS011;10160;50.926;4.374;2023-08-06T02:00:50;16.65;;;6.60;;
19998;SDS011;10160;50.926;4.374;2023-08-06T02:03:16;14.30;;;7.13;;
19998;SDS011;10160;50.926;4.374;2023-08-06T02:05:42;11.70;;;5.70;;
19998;SDS011;10160;50.926;4.374;2023-08-06T02:08:07;15.05;;;7.10;;
19998;SDS011;10160;50.926;4.374;2023-08-06T02:10:33;17.00;;;6.65;;
19998;SDS011;10160;50.926;4.374;2023-08-06T02:12:59;18.00;;;5.70;;
19998;SDS011;10160;50.926;4.374;2023-08-06T02:15:24;15.05;;;6.20;;
19998;SDS011;10160;50.926;4.374;2023-08-06T02:17:50;15.50;;;6.60;;
19998;SDS011;10160;50.926;4.374;2023-08-06T02:20:16;17.42;;;6.40;;
19998;SDS011;10160;50.926;4.374;2023-08-06T02:22:41;18.63;;;6.00;;
19998;SDS011;10160;50.926;4.374;2023-08-06T02:25:07;15.82;;;6.30;;
19998;SDS011;10160;50.926;4.374;2023-08-06T02:27:33;17.60;;;5.85;;
19998;SDS011;10160;50.926;4.374;2023-08-06T02:30:02;18.27;;;6.00;;
19998;SDS011;10160;50.926;4.374;2023-08-06T02:32:29;14.13;;;5.53;;
19998;SDS011;10160;50.926;4.374;2023-08-06T02:34:56;18.10;;;5.70;;
19998;SDS011;10160;50.926;4.374;2023-08-06T02:37:25;14.90;;;4.80;;
19998;SDS011;10160;50.926;4.374;2023-08-06T02:39:50;11.15;;;4.85;;
19998;SDS011;10160;50.926;4.374;2023-08-06T02:42:16;8.80;;;4.03;;
19998;SDS011;10160;50.926;4.374;2023-08-06T02:44:42;11.95;;;4.28;;
19998;SDS011;10160;50.926;4.374;2023-08-06T02:47:07;19.15;;;4.97;;
19998;SDS011;10160;50.926;4.374;2023-08-06T02:49:33;19.13;;;5.05;;
19998;SDS011;10160;50.926;4.374;2023-08-06T02:51:59;13.13;;;4.72;;
19998;SDS011;10160;50.926;4.374;2023-08-06T02:54:24;19.77;;;4.95;;
19998;SDS011;10160;50.926;4.374;2023-08-06T02:56:50;18.77;;;5.32;;
19998;SDS011;10160;50.926;4.374;2023-08-06T02:59:18;14.88;;;5.28;;
19998;SDS011;10160;50.926;4.374;2023-08-06T03:01:47;19.48;;;5.65;;
19998;SDS011;10160;50.926;4.374;2023-08-06T03:04:12;17.98;;;6.03;;
19998;SDS011;10160;50.926;4.374;2023-08-06T03:06:38;24.73;;;7.50;;
19998;SDS011;10160;50.926;4.374;2023-08-06T03:09:04;21.52;;;7.05;;
19998;SDS011;10160;50.926;4.374;2023-08-06T03:11:29;15.75;;;7.30;;
19998;SDS011;10160;50.926;4.374;2023-08-06T03:13:55;18.65;;;8.02;;
19998;SDS011;10160;50.926;4.374;2023-08-06T03:16:20;21.52;;;9.60;;
19998;SDS011;10160;50.926;4.374;2023-08-06T03:18:46;19.30;;;9.27;;
19998;SDS011;10160;50.926;4.374;2023-08-06T03:21:12;23.02;;;10.35;;
19998;SDS011;10160;50.926;4.374;2023-08-06T03:23:38;25.05;;;11.30;;
19998;SDS011;10160;50.926;4.374;2023-08-06T03:26:03;28.48;;;12.15;;
19998;SDS011;10160;50.926;4.374;2023-08-06T03:28:29;22.60;;;11.55;;
19998;SDS011;10160;50.926;4.374;2023-08-06T03:30:59;28.13;;;12.90;;
19998;SDS011;10160;50.926;4.374;2023-08-06T03:33:25;25.65;;;12.35;;
19998;SDS011;10160;50.926;4.374;2023-08-06T03:35:51;26.13;;;12.18;;
19998;SDS011;10160;50.926;4.374;2023-08-06T03:38:17;22.75;;;12.48;;
19998;SDS011;10160;50.926;4.374;2023-08-06T03:40:42;24.00;;;11.82;;
19998;SDS011;10160;50.926;4.374;2023-08-06T03:43:08;20.80;;;10.95;;
19998;SDS011;10160;50.926;4.374;2023-08-06T03:45:34;21.48;;;10.23;;
19998;SDS011;10160;50.926;4.374;2023-08-06T03:47:59;16.48;;;8.77;;
19998;SDS011;10160;50.926;4.374;2023-08-06T03:50:25;16.95;;;7.88;;
19998;SDS011;10160;50.926;4.374;2023-08-06T03:52:51;13.88;;;6.80;;
19998;SDS011;10160;50.926;4.374;2023-08-06T03:55:16;10.45;;;5.18;;
19998;SDS011;10160;50.926;4.374;2023-08-06T03:57:42;11.18;;;5.35;;
19998;SDS011;10160;50.926;4.374;2023-08-06T04:00:08;9.50;;;3.60;;
19998;SDS011;10160;50.926;4.374;2023-08-06T04:02:34;5.65;;;3.13;;
19998;SDS011;10160;50.926;4.374;2023-08-06T04:05:00;5.07;;;2.20;;
19998;SDS011;10160;50.926;4.374;2023-08-06T04:07:26;4.13;;;1.70;;
19998;SDS011;10160;50.926;4.374;2023-08-06T04:09:56;5.53;;;1.95;;
19998;SDS011;10160;50.926;4.374;2023-08-06T04:12:23;5.70;;;1.85;;
19998;SDS011;10160;50.926;4.374;2023-08-06T04:14:49;6.82;;;1.88;;
19998;SDS011;10160;50.926;4.374;2023-08-06T04:17:16;4.82;;;1.15;;
19998;SDS011;10160;50.926;4.374;2023-08-06T04:19:45;2.78;;;1.02;;
19998;SDS011;10160;50.926;4.374;2023-08-06T04:22:15;3.08;;;1.30;;
19998;SDS011;10160;50.926;4.374;2023-08-06T04:24:41;5.28;;;1.45;;
19998;SDS011;10160;50.926;4.374;2023-08-06T04:27:08;3.03;;;1.27;;
19998;SDS011;10160;50.926;4.374;2023-08-06T04:29:35;4.63;;;1.60;;
19998;SDS011;10160;50.926;4.374;2023-08-06T04:32:01;3.60;;;1.73;;
19998;SDS011;10160;50.926;4.374;2023-08-06T04:34:27;5.73;;;2.43;;
19998;SDS011;10160;50.926;4.374;2023-08-06T04:36:52;5.50;;;2.13;;
19998;SDS011;10160;50.926;4.374;2023-08-06T04:39:18;8.77;;;2.38;;
19998;SDS011;10160;50.926;4.374;2023-08-06T04:41:44;5.07;;;2.40;;
19998;SDS011;10160;50.926;4.374;2023-08-06T04:44:12;9.10;;;2.73;;
19998;SDS011;10160;50.926;4.374;2023-08-06T04:46:38;9.80;;;2.70;;
19998;SDS011;10160;50.926;4.374;2023-08-06T04:49:06;7.43;;;2.97;;
19998;SDS011;10160;50.926;4.374;2023-08-06T04:51:32;9.80;;;3.63;;
19998;SDS011;10160;50.926;4.374;2023-08-06T04:53:58;12.70;;;4.07;;
19998;SDS011;10160;50.926;4.374;2023-08-06T04:56:24;9.37;;;3.37;;
19998;SDS011;10160;50.926;4.374;2023-08-06T04:58:49;13.30;;;3.30;;
19998;SDS011;10160;50.926;4.374;2023-08-06T05:01:15;8.10;;;3.70;;
19998;SDS011;10160;50.926;4.374;2023-08-06T05:03:41;7.37;;;3.53;;
19998;SDS011;10160;50.926;4.374;2023-08-06T05:06:07;11.40;;;3.47;;
19998;SDS011;10160;50.926;4.374;2023-08-06T05:08:33;11.80;;;4.03;;
19998;SDS011;10160;50.926;4.374;2023-08-06T05:10:58;10.07;;;4.37;;
19998;SDS011;10160;50.926;4.374;2023-08-06T05:13:27;10.13;;;4.30;;
19998;SDS011;10160;50.926;4.374;2023-08-06T05:15:53;10.60;;;4.20;;
19998;SDS011;10160;50.926;4.374;2023-08-06T05:18:19;14.37;;;4.63;;
19998;SDS011;10160;50.926;4.374;2023-08-06T05:20:47;11.10;;;4.47;;
19998;SDS011;10160;50.926;4.374;2023-08-06T05:23:13;14.00;;;4.07;;
19998;SDS011;10160;50.926;4.374;2023-08-06T05:25:38;9.43;;;4.03;;
19998;SDS011;10160;50.926;4.374;2023-08-06T05:28:04;10.90;;;3.60;;
19998;SDS011;10160;50.926;4.374;2023-08-06T05:30:30;10.57;;;3.97;;
19998;SDS011;10160;50.926;4.374;2023-08-06T05:32:55;16.47;;;3.87;;
19998;SDS011;10160;50.926;4.374;2023-08-06T05:35:22;13.43;;;3.90;;
19998;SDS011;10160;50.926;4.374;2023-08-06T05:37:48;11.57;;;3.90;;
19998;SDS011;10160;50.926;4.374;2023-08-06T05:40:15;14.70;;;3.90;;
19998;SDS011;10160;50.926;4.374;2023-08-06T05:42:40;13.00;;;3.33;;
19998;SDS011;10160;50.926;4.374;2023-08-06T05:45:07;10.98;;;3.92;;
19998;SDS011;10160;50.926;4.374;2023-08-06T05:47:33;11.07;;;3.63;;
19998;SDS011;10160;50.926;4.374;2023-08-06T05:49:59;18.90;;;4.40;;
19998;SDS011;10160;50.926;4.374;2023-08-06T05:52:24;14.00;;;4.57;;
19998;SDS011;10160;50.926;4.374;2023-08-06T05:54:50;14.70;;;4.10;;
19998;SDS011;10160;50.926;4.374;2023-08-06T05:57:16;18.23;;;4.17;;
19998;SDS011;10160;50.926;4.374;2023-08-06T05:59:42;9.70;;;3.40;;
19998;SDS011;10160;50.926;4.374;2023-08-06T06:02:08;11.48;;;3.83;;
19998;SDS011;10160;50.926;4.374;2023-08-06T06:04:33;14.52;;;4.20;;
19998;SDS011;10160;50.926;4.374;2023-08-06T06:06:59;14.57;;;3.53;;
19998;SDS011;10160;50.926;4.374;2023-08-06T06:09:25;16.17;;;3.60;;
19998;SDS011;10160;50.926;4.374;2023-08-06T06:11:51;18.40;;;3.55;;
19998;SDS011;10160;50.926;4.374;2023-08-06T06:14:17;13.95;;;4.00;;
19998;SDS011;10160;50.926;4.374;2023-08-06T06:16:43;15.03;;;3.60;;
19998;SDS011;10160;50.926;4.374;2023-08-06T06:19:09;17.23;;;4.10;;
19998;SDS011;10160;50.926;4.374;2023-08-06T06:21:35;15.90;;;3.87;;
19998;SDS011;10160;50.926;4.374;2023-08-06T06:24:00;16.77;;;3.90;;
19998;SDS011;10160;50.926;4.374;2023-08-06T06:26:26;13.05;;;3.78;;
19998;SDS011;10160;50.926;4.374;2023-08-06T06:28:52;16.60;;;3.97;;
19998;SDS011;10160;50.926;4.374;2023-08-06T06:31:18;10.53;;;3.60;;
19998;SDS011;10160;50.926;4.374;2023-08-06T06:33:43;17.50;;;3.80;;
19998;SDS011;10160;50.926;4.374;2023-08-06T06:36:09;13.55;;;3.53;;
19998;SDS011;10160;50.926;4.374;2023-08-06T06:38:35;11.90;;;3.13;;
19998;SDS011;10160;50.926;4.374;2023-08-06T06:41:00;9.27;;;3.70;;
19998;SDS011;10160;50.926;4.374;2023-08-06T06:43:28;12.57;;;3.78;;
19998;SDS011;10160;50.926;4.374;2023-08-06T06:45:57;12.57;;;3.40;;
19998;SDS011;10160;50.926;4.374;2023-08-06T06:48:26;10.55;;;3.30;;
19998;SDS011;10160;50.926;4.374;2023-08-06T06:50:53;12.65;;;3.97;;
19998;SDS011;10160;50.926;4.374;2023-08-06T06:53:19;16.45;;;4.47;;
19998;SDS011;10160;50.926;4.374;2023-08-06T06:55:44;13.40;;;4.30;;
19998;SDS011;10160;50.926;4.374;2023-08-06T06:58:10;13.23;;;4.35;;
19998;SDS011;10160;50.926;4.374;2023-08-06T07:00:36;17.15;;;4.47;;
19998;SDS011;10160;50.926;4.374;2023-08-06T07:03:02;13.02;;;3.80;;
19998;SDS011;10160;50.926;4.374;2023-08-06T07:05:28;14.82;;;4.13;;
19998;SDS011;10160;50.926;4.374;2023-08-06T07:07:54;12.40;;;3.03;;
19998;SDS011;10160;50.926;4.374;2023-08-06T07:10:19;19.73;;;4.20;;
19998;SDS011;10160;50.926;4.374;2023-08-06T07:12:45;12.10;;;3.22;;
19998;SDS011;10160;50.926;4.374;2023-08-06T07:15:11;12.90;;;2.50;;
19998;SDS011;10160;50.926;4.374;2023-08-06T07:17:37;16.35;;;2.70;;
19998;SDS011;10160;50.926;4.374;2023-08-06T07:20:02;8.32;;;2.28;;
19998;SDS011;10160;50.926;4.374;2023-08-06T07:22:29;17.40;;;3.28;;
19998;SDS011;10160;50.926;4.374;2023-08-06T07:24:55;16.85;;;2.50;;
19998;SDS011;10160;50.926;4.374;2023-08-06T07:27:20;11.93;;;2.63;;
19998;SDS011;10160;50.926;4.374;2023-08-06T07:29:46;8.73;;;2.50;;
19998;SDS011;10160;50.926;4.374;2023-08-06T07:32:13;15.82;;;2.75;;
19998;SDS011;10160;50.926;4.374;2023-08-06T07:34:39;13.23;;;2.20;;
19998;SDS011;10160;50.926;4.374;2023-08-06T07:37:04;8.30;;;1.77;;
19998;SDS011;10160;50.926;4.374;2023-08-06T07:39:30;15.35;;;2.58;;
19998;SDS011;10160;50.926;4.374;2023-08-06T07:41:56;14.15;;;2.33;;
19998;SDS011;10160;50.926;4.374;2023-08-06T07:44:22;14.18;;;2.28;;
19998;SDS011;10160;50.926;4.374;2023-08-06T07:46:48;14.73;;;2.40;;
19998;SDS011;10160;50.926;4.374;2023-08-06T07:49:14;10.95;;;1.83;;
19998;SDS011;10160;50.926;4.374;2023-08-06T07:51:40;8.23;;;1.77;;
19998;SDS011;10160;50.926;4.374;2023-08-06T07:54:06;13.13;;;1.77;;
19998;SDS011;10160;50.926;4.374;2023-08-06T07:56:32;9.23;;;1.95;;
19998;SDS011;10160;50.926;4.374;2023-08-06T07:58:57;13.10;;;2.42;;
19998;SDS011;10160;50.926;4.374;2023-08-06T08:01:26;11.30;;;2.15;;
19998;SDS011;10160;50.926;4.374;2023-08-06T08:03:51;12.57;;;2.08;;
19998;SDS011;10160;50.926;4.374;2023-08-06T08:06:17;13.55;;;2.25;;
19998;SDS011;10160;50.926;4.374;2023-08-06T08:08:42;12.23;;;1.83;;
19998;SDS011;10160;50.926;4.374;2023-08-06T08:11:08;15.68;;;2.40;;
19998;SDS011;10160;50.926;4.374;2023-08-06T08:13:37;10.48;;;1.70;;
19998;SDS011;10160;50.926;4.374;2023-08-06T08:16:03;11.10;;;1.80;;
19998;SDS011;10160;50.926;4.374;2023-08-06T08:18:28;16.75;;;2.00;;
19998;SDS011;10160;50.926;4.374;2023-08-06T08:20:56;10.73;;;1.67;;
19998;SDS011;10160;50.926;4.374;2023-08-06T08:23:22;11.88;;;1.58;;
19998;SDS011;10160;50.926;4.374;2023-08-06T08:25:47;9.45;;;1.60;;
19998;SDS011;10160;50.926;4.374;2023-08-06T08:28:13;8.70;;;1.88;;
19998;SDS011;10160;50.926;4.374;2023-08-06T08:30:40;10.07;;;1.42;;
19998;SDS011;10160;50.926;4.374;2023-08-06T08:33:06;9.80;;;1.77;;
19998;SDS011;10160;50.926;4.374;2023-08-06T08:35:32;12.10;;;1.80;;
19998;SDS011;10160;50.926;4.374;2023-08-06T08:37:58;10.50;;;1.38;;
19998;SDS011;10160;50.926;4.374;2023-08-06T08:40:26;6.20;;;1.63;;
19998;SDS011;10160;50.926;4.374;2023-08-06T08:42:57;3.67;;;1.27;;
19998;SDS011;10160;50.926;4.374;2023-08-06T08:45:24;8.48;;;2.15;;
19998;SDS011;10160;50.926;4.374;2023-08-06T08:47:53;12.70;;;1.98;;
19998;SDS011;10160;50.926;4.374;2023-08-06T08:50:20;11.50;;;1.95;;
19998;SDS011;10160;50.926;4.374;2023-08-06T08:52:46;8.52;;;1.80;;
19998;SDS011;10160;50.926;4.374;2023-08-06T08:55:14;12.82;;;2.35;;
19998;SDS011;10160;50.926;4.374;2023-08-06T08:57:41;10.63;;;2.10;;
19998;SDS011;10160;50.926;4.374;2023-08-06T09:00:07;10.82;;;1.60;;
19998;SDS011;10160;50.926;4.374;2023-08-06T09:02:33;8.73;;;1.77;;
19998;SDS011;10160;50.926;4.374;2023-08-06T09:04:59;9.02;;;1.63;;
19998;SDS011;10160;50.926;4.374;2023-08-06T09:07:29;15.43;;;2.45;;
19998;SDS011;10160;50.926;4.374;2023-08-06T09:09:58;14.40;;;2.13;;
19998;SDS011;10160;50.926;4.374;2023-08-06T09:12:26;17.70;;;2.10;;
19998;SDS011;10160;50.926;4.374;2023-08-06T09:14:52;6.32;;;1.33;;
19998;SDS011;10160;50.926;4.374;2023-08-06T09:17:19;11.25;;;1.80;;
19998;SDS011;10160;50.926;4.374;2023-08-06T09:19:47;15.35;;;2.28;;
19998;SDS011;10160;50.926;4.374;2023-08-06T09:22:14;11.77;;;2.03;;
19998;SDS011;10160;50.926;4.374;2023-08-06T09:24:43;14.27;;;2.10;;
19998;SDS011;10160;50.926;4.374;2023-08-06T09:27:12;10.88;;;2.17;;
19998;SDS011;10160;50.926;4.374;2023-08-06T09:29:43;10.90;;;1.95;;
19998;SDS011;10160;50.926;4.374;2023-08-06T09:32:10;9.60;;;2.10;;
19998;SDS011;10160;50.926;4.374;2023-08-06T09:34:43;11.68;;;1.95;;
19998;SDS011;10160;50.926;4.374;2023-08-06T09:37:11;15.23;;;2.25;;
19998;SDS011;10160;50.926;4.374;2023-08-06T09:39:38;7.82;;;1.42;;
19998;SDS011;10160;50.926;4.374;2023-08-06T09:42:05;12.05;;;2.13;;
19998;SDS011;10160;50.926;4.374;2023-08-06T09:44:31;17.30;;;2.38;;
19998;SDS011;10160;50.926;4.374;2023-08-06T09:46:58;16.90;;;2.10;;
19998;SDS011;10160;50.926;4.374;2023-08-06T09:49:28;12.50;;;2.42;;
19998;SDS011;10160;50.926;4.374;2023-08-06T09:52:09;15.25;;;2.80;;
19998;SDS011;10160;50.926;4.374;2023-08-06T09:54:37;8.90;;;2.00;;
19998;SDS011;10160;50.926;4.374;2023-08-06T09:57:06;11.13;;;2.22;;
19998;SDS011;10160;50.926;4.374;2023-08-06T09:59:33;9.68;;;1.95;;
19998;SDS011;10160;50.926;4.374;2023-08-06T10:02:00;13.15;;;2.50;;
19998;SDS011;10160;50.926;4.374;2023-08-06T10:04:27;11.15;;;2.40;;
19998;SDS011;10160;50.926;4.374;2023-08-06T10:06:54;12.40;;;2.03;;
19998;SDS011;10160;50.926;4.374;2023-08-06T10:09:20;10.25;;;2.25;;
19998;SDS011;10160;50.926;4.374;2023-08-06T10:11:48;7.85;;;1.58;;
19998;SDS011;10160;50.926;4.374;2023-08-06T10:14:16;9.45;;;1.70;;
19998;SDS011;10160;50.926;4.374;2023-08-06T10:16:46;8.57;;;1.83;;
19998;SDS011;10160;50.926;4.374;2023-08-06T10:19:12;11.95;;;1.77;;
19998;SDS011;10160;50.926;4.374;2023-08-06T10:21:40;13.57;;;2.05;;
19998;SDS011;10160;50.926;4.374;2023-08-06T10:24:06;9.07;;;2.03;;
19998;SDS011;10160;50.926;4.374;2023-08-06T10:26:36;12.15;;;1.98;;
19998;SDS011;10160;50.926;4.374;2023-08-06T10:29:28;10.10;;;1.60;;
19998;SDS011;10160;50.926;4.374;2023-08-06T10:32:01;9.33;;;1.90;;
19998;SDS011;10160;50.926;4.374;2023-08-06T10:35:12;14.43;;;2.08;;
19998;SDS011;10160;50.926;4.374;2023-08-06T10:37:21;10.03;;;1.73;;
19998;SDS011;10160;50.926;4.374;2023-08-06T10:39:51;10.37;;;2.00;;
19998;SDS011;10160;50.926;4.374;2023-08-06T10:42:21;9.67;;;2.10;;
19998;SDS011;10160;50.926;4.374;2023-08-06T10:47:39;13.90;;;2.00;;
19998;SDS011;10160;50.926;4.374;2023-08-06T10:50:06;10.00;;;2.27;;
19998;SDS011;10160;50.926;4.374;2023-08-06T10:52:33;12.30;;;1.90;;
19998;SDS011;10160;50.926;4.374;2023-08-06T10:54:59;9.17;;;2.00;;
19998;SDS011;10160;50.926;4.374;2023-08-06T10:57:25;11.23;;;2.03;;
19998;SDS011;10160;50.926;4.374;2023-08-06T10:59:50;12.00;;;2.30;;
19998;SDS011;10160;50.926;4.374;2023-08-06T11:02:16;7.90;;;2.30;;
19998;SDS011;10160;50.926;4.374;2023-08-06T11:04:42;16.53;;;2.70;;
19998;SDS011;10160;50.926;4.374;2023-08-06T11:07:08;17.97;;;2.57;;
19998;SDS011;10160;50.926;4.374;2023-08-06T11:09:33;8.63;;;2.10;;
19998;SDS011;10160;50.926;4.374;2023-08-06T11:11:59;16.23;;;2.63;;
19998;SDS011;10160;50.926;4.374;2023-08-06T11:14:25;15.38;;;2.80;;
19998;SDS011;10160;50.926;4.374;2023-08-06T11:16:50;7.93;;;1.90;;
19998;SDS011;10160;50.926;4.374;2023-08-06T11:19:16;18.67;;;2.40;;
19998;SDS011;10160;50.926;4.374;2023-08-06T11:21:43;11.30;;;2.17;;
19998;SDS011;10160;50.926;4.374;2023-08-06T11:24:12;8.50;;;2.73;;
19998;SDS011;10160;50.926;4.374;2023-08-06T11:26:37;13.32;;;2.75;;
19998;SDS011;10160;50.926;4.374;2023-08-06T11:29:06;18.58;;;3.03;;
19998;SDS011;10160;50.926;4.374;2023-08-06T11:31:31;17.70;;;2.72;;
19998;SDS011;10160;50.926;4.374;2023-08-06T11:34:06;13.20;;;2.55;;
19998;SDS011;10160;50.926;4.374;2023-08-06T11:36:32;9.73;;;2.30;;
19998;SDS011;10160;50.926;4.374;2023-08-06T11:38:59;10.43;;;2.13;;
19998;SDS011;10160;50.926;4.374;2023-08-06T11:41:27;14.20;;;2.83;;
19998;SDS011;10160;50.926;4.374;2023-08-06T11:43:57;11.83;;;2.33;;
19998;SDS011;10160;50.926;4.374;2023-08-06T11:46:24;10.80;;;1.87;;
19998;SDS011;10160;50.926;4.374;2023-08-06T11:48:56;8.57;;;2.00;;
19998;SDS011;10160;50.926;4.374;2023-08-06T11:51:29;9.30;;;1.80;;
19998;SDS011;10160;50.926;4.374;2023-08-06T11:53:58;7.53;;;2.00;;
19998;SDS011;10160;50.926;4.374;2023-08-06T11:56:24;7.27;;;1.90;;
19998;SDS011;10160;50.926;4.374;2023-08-06T11:58:51;8.83;;;2.07;;
19998;SDS011;10160;50.926;4.374;2023-08-06T12:01:17;8.03;;;1.80;;
19998;SDS011;10160;50.926;4.374;2023-08-06T12:03:43;10.87;;;1.67;;
19998;SDS011;10160;50.926;4.374;2023-08-06T12:06:09;11.63;;;1.97;;
19998;SDS011;10160;50.926;4.374;2023-08-06T12:08:38;7.90;;;1.87;;
19998;SDS011;10160;50.926;4.374;2023-08-06T12:11:03;11.53;;;1.80;;
19998;SDS011;10160;50.926;4.374;2023-08-06T12:13:29;11.60;;;2.43;;
19998;SDS011;10160;50.926;4.374;2023-08-06T12:15:55;9.83;;;1.80;;
19998;SDS011;10160;50.926;4.374;2023-08-06T12:18:22;11.40;;;2.00;;
19998;SDS011;10160;50.926;4.374;2023-08-06T12:20:48;9.93;;;1.53;;
19998;SDS011;10160;50.926;4.374;2023-08-06T12:23:17;12.77;;;2.00;;
19998;SDS011;10160;50.926;4.374;2023-08-06T12:25:42;8.47;;;1.93;;
19998;SDS011;10160;50.926;4.374;2023-08-06T12:28:09;13.70;;;1.92;;
19998;SDS011;10160;50.926;4.374;2023-08-06T12:30:35;11.85;;;1.90;;
19998;SDS011;10160;50.926;4.374;2023-08-06T12:33:01;10.02;;;1.67;;
19998;SDS011;10160;50.926;4.374;2023-08-06T12:35:27;12.10;;;2.10;;
19998;SDS011;10160;50.926;4.374;2023-08-06T12:37:52;10.70;;;2.33;;
19998;SDS011;10160;50.926;4.374;2023-08-06T12:40:20;11.85;;;2.00;;
19998;SDS011;10160;50.926;4.374;2023-08-06T12:42:45;9.15;;;2.20;;
19998;SDS011;10160;50.926;4.374;2023-08-06T12:45:11;16.98;;;2.30;;
19998;SDS011;10160;50.926;4.374;2023-08-06T12:47:37;6.32;;;1.80;;
19998;SDS011;10160;50.926;4.374;2023-08-06T12:50:03;13.73;;;2.07;;
19998;SDS011;10160;50.926;4.374;2023-08-06T12:52:28;8.82;;;1.85;;
19998;SDS011;10160;50.926;4.374;2023-08-06T12:54:54;13.60;;;1.93;;
19998;SDS011;10160;50.926;4.374;2023-08-06T12:57:20;10.70;;;1.97;;
19998;SDS011;10160;50.926;4.374;2023-08-06T12:59:46;12.33;;;1.83;;
19998;SDS011;10160;50.926;4.374;2023-08-06T13:02:11;10.18;;;1.88;;
19998;SDS011;10160;50.926;4.374;2023-08-06T13:04:37;9.18;;;1.90;;
19998;SDS011;10160;50.926;4.374;2023-08-06T13:07:03;13.13;;;2.15;;
19998;SDS011;10160;50.926;4.374;2023-08-06T13:09:31;13.10;;;1.95;;
19998;SDS011;10160;50.926;4.374;2023-08-06T13:12:05;9.27;;;1.58;;
19998;SDS011;10160;50.926;4.374;2023-08-06T13:14:31;9.65;;;2.13;;
19998;SDS011;10160;50.926;4.374;2023-08-06T13:16:57;11.02;;;1.98;;
19998;SDS011;10160;50.926;4.374;2023-08-06T13:19:23;11.38;;;1.80;;
19998;SDS011;10160;50.926;4.374;2023-08-06T13:24:16;6.55;;;1.70;;
19998;SDS011;10160;50.926;4.374;2023-08-06T13:26:42;5.73;;;1.90;;
19998;SDS011;10160;50.926;4.374;2023-08-06T13:29:08;11.57;;;2.27;;
19998;SDS011;10160;50.926;4.374;2023-08-06T13:31:34;9.82;;;1.75;;
19998;SDS011;10160;50.926;4.374;2023-08-06T13:34:00;6.70;;;1.50;;
19998;SDS011;10160;50.926;4.374;2023-08-06T13:36:26;11.93;;;1.87;;
19998;SDS011;10160;50.926;4.374;2023-08-06T13:38:52;14.45;;;2.45;;
19998;SDS011;10160;50.926;4.374;2023-08-06T13:41:17;16.93;;;2.30;;
19998;SDS011;10160;50.926;4.374;2023-08-06T13:43:43;17.37;;;2.40;;
19998;SDS011;10160;50.926;4.374;2023-08-06T13:46:09;14.73;;;2.10;;
19998;SDS011;10160;50.926;4.374;2023-08-06T13:48:40;9.43;;;1.60;;
19998;SDS011;10160;50.926;4.374;2023-08-06T13:51:06;12.10;;;2.00;;
19998;SDS011;10160;50.926;4.374;2023-08-06T13:53:31;8.07;;;1.73;;
19998;SDS011;10160;50.926;4.374;2023-08-06T13:55:57;13.03;;;2.07;;
19998;SDS011;10160;50.926;4.374;2023-08-06T13:58:23;10.93;;;1.93;;
19998;SDS011;10160;50.926;4.374;2023-08-06T14:00:50;11.27;;;1.97;;
19998;SDS011;10160;50.926;4.374;2023-08-06T14:03:18;10.90;;;2.00;;
19998;SDS011;10160;50.926;4.374;2023-08-06T14:05:44;7.70;;;1.87;;
19998;SDS011;10160;50.926;4.374;2023-08-06T14:08:09;10.20;;;1.60;;
19998;SDS011;10160;50.926;4.374;2023-08-06T14:10:35;11.73;;;2.33;;
19998;SDS011;10160;50.926;4.374;2023-08-06T14:13:01;12.73;;;2.60;;
19998;SDS011;10160;50.926;4.374;2023-08-06T14:15:32;16.07;;;2.20;;
19998;SDS011;10160;50.926;4.374;2023-08-06T14:17:58;10.03;;;2.13;;
19998;SDS011;10160;50.926;4.374;2023-08-06T14:20:24;13.47;;;2.37;;
19998;SDS011;10160;50.926;4.374;2023-08-06T14:22:49;13.40;;;2.67;;
19998;SDS011;10160;50.926;4.374;2023-08-06T14:25:18;13.87;;;2.80;;
19998;SDS011;10160;50.926;4.374;2023-08-06T14:27:43;11.93;;;1.97;;
19998;SDS011;10160;50.926;4.374;2023-08-06T14:30:09;10.50;;;2.60;;
19998;SDS011;10160;50.926;4.374;2023-08-06T14:32:35;10.33;;;2.67;;
19998;SDS011;10160;50.926;4.374;2023-08-06T14:35:01;12.37;;;2.50;;
19998;SDS011;10160;50.926;4.374;2023-08-06T14:37:26;10.57;;;2.20;;
19998;SDS011;10160;50.926;4.374;2023-08-06T14:39:52;13.23;;;2.60;;
19998;SDS011;10160;50.926;4.374;2023-08-06T14:42:18;22.57;;;2.83;;
19998;SDS011;10160;50.926;4.374;2023-08-06T14:44:44;12.60;;;2.75;;
19998;SDS011;10160;50.926;4.374;2023-08-06T14:47:10;8.70;;;2.47;;
19998;SDS011;10160;50.926;4.374;2023-08-06T14:49:36;9.00;;;2.10;;
19998;SDS011;10160;50.926;4.374;2023-08-06T14:52:02;16.33;;;2.88;;